createdAt,value
2018-02-21T00:00:39.041Z,105.33
2018-02-21T00:03:05.343Z,98.60
2018-02-21T00:05:31.629Z,101.00
2018-02-21T00:07:57.986Z,92.73
2018-02-21T00:10:24.271Z,99.27
2018-02-21T00:12:50.868Z,83.20
2018-02-21T00:15:17.911Z,107.70
2018-02-21T00:17:44.172Z,97.97
2018-02-21T00:20:10.518Z,104.67
2018-02-21T00:22:37.587Z,101.47
2018-02-21T00:25:03.840Z,99.30
2018-02-21T00:27:30.123Z,109.87
2018-02-21T00:29:56.405Z,107.83
2018-02-21T00:32:23.442Z,103.50
2018-02-21T00:34:50.439Z,113.60
2018-02-21T00:37:16.758Z,104.50
2018-02-21T00:39:45.027Z,113.70
2018-02-21T00:42:11.307Z,118.23
2018-02-21T00:44:37.621Z,115.47
2018-02-21T00:47:03.884Z,119.47
2018-02-21T00:49:30.911Z,132.67
2018-02-21T00:51:57.948Z,119.50
2018-02-21T00:54:24.964Z,119.80
2018-02-21T00:56:51.222Z,122.70
2018-02-21T00:59:17.539Z,111.70
2018-02-21T01:01:43.815Z,124.17
2018-02-21T01:04:10.099Z,134.60
2018-02-21T01:06:36.390Z,128.33
2018-02-21T01:09:02.736Z,127.63
2018-02-21T01:11:29.004Z,132.33
2018-02-21T01:13:55.316Z,133.33
2018-02-21T01:16:21.676Z,126.73
2018-02-21T01:18:48.005Z,135.27
2018-02-21T01:21:14.294Z,120.10
2018-02-21T01:23:40.590Z,125.70
2018-02-21T01:26:06.877Z,130.27
2018-02-21T01:28:33.149Z,126.03
2018-02-21T01:30:59.470Z,124.57
2018-02-21T01:33:25.733Z,132.13
2018-02-21T01:35:52.754Z,121.73
2018-02-21T01:38:19.790Z,127.33
2018-02-21T01:40:46.803Z,110.00
2018-02-21T01:43:13.085Z,116.57
2018-02-21T01:45:39.343Z,110.17
2018-02-21T01:48:05.610Z,116.50
2018-02-21T01:50:44.308Z,117.10
2018-02-21T01:53:11.298Z,113.97
2018-02-21T01:55:38.354Z,101.47
2018-02-21T01:58:04.623Z,111.90
2018-02-21T02:00:30.900Z,121.50
2018-02-21T02:02:57.182Z,103.03
2018-02-21T02:05:24.184Z,105.13
2018-02-21T02:07:50.467Z,105.07
2018-02-21T02:10:16.722Z,106.57
2018-02-21T02:12:43.019Z,105.17
2018-02-21T02:15:09.324Z,111.03
2018-02-21T02:17:35.592Z,111.70
2018-02-21T02:20:02.690Z,104.00
2018-02-21T02:22:28.948Z,107.97
2018-02-21T02:24:55.294Z,110.90
2018-02-21T02:27:21.604Z,108.73
2018-02-21T02:29:47.890Z,110.00
2018-02-21T02:32:14.930Z,112.80
2018-02-21T02:34:41.940Z,106.63
2018-02-21T02:37:08.195Z,116.43
2018-02-21T02:39:46.684Z,112.77
2018-02-21T02:42:12.958Z,110.30
2018-02-21T02:44:39.253Z,113.30
2018-02-21T02:47:06.224Z,122.57
2018-02-21T02:49:32.500Z,113.53
2018-02-21T02:51:58.798Z,120.03
2018-02-21T02:54:25.063Z,116.17
2018-02-21T02:56:52.093Z,127.00
2018-02-21T02:59:18.361Z,117.37
2018-02-21T03:01:44.640Z,116.83
2018-02-21T03:04:11.742Z,125.17
2018-02-21T03:06:38.017Z,126.00
2018-02-21T03:09:04.322Z,128.33
2018-02-21T03:11:30.587Z,126.23
2018-02-21T03:13:56.850Z,128.80
2018-02-21T03:16:23.199Z,139.83
2018-02-21T03:18:49.478Z,135.57
2018-02-21T03:21:15.759Z,137.17
2018-02-21T03:23:42.014Z,139.83
2018-02-21T03:26:08.307Z,153.33
2018-02-21T03:28:35.389Z,136.27
2018-02-21T03:31:01.667Z,143.40
2018-02-21T03:33:27.972Z,151.27
2018-02-21T03:35:54.979Z,144.33
2018-02-21T03:38:21.282Z,142.67
2018-02-21T03:40:47.538Z,152.40
2018-02-21T03:43:14.557Z,148.37
2018-02-21T03:45:41.645Z,137.13
2018-02-21T03:48:07.903Z,134.10
2018-02-21T03:50:34.195Z,149.60
2018-02-21T03:53:00.467Z,142.00
2018-02-21T03:55:26.770Z,147.20
2018-02-21T03:57:53.059Z,163.00
2018-02-21T04:00:19.339Z,140.80
2018-02-21T04:02:45.673Z,134.20
2018-02-21T04:05:11.935Z,123.83
2018-02-21T04:07:38.247Z,143.13
2018-02-21T04:10:04.562Z,133.60
2018-02-21T04:12:30.991Z,123.57
2018-02-21T04:14:57.286Z,135.30
2018-02-21T04:17:24.295Z,132.00
2018-02-21T04:19:50.666Z,128.57
2018-02-21T04:22:17.166Z,126.27
2018-02-21T04:24:43.455Z,131.77
2018-02-21T04:27:09.809Z,126.27
2018-02-21T04:29:36.073Z,131.47
2018-02-21T04:32:02.325Z,133.60
2018-02-21T04:34:28.598Z,121.53
2018-02-21T04:36:54.865Z,117.00
2018-02-21T04:39:21.158Z,128.23
2018-02-21T04:41:48.179Z,129.37
2018-02-21T04:44:14.550Z,126.90
2018-02-21T04:46:40.857Z,118.60
2018-02-21T04:49:07.118Z,123.20
2018-02-21T04:51:55.144Z,123.77
2018-02-21T04:57:38.389Z,127.10
2018-02-21T05:00:07.331Z,120.13
2018-02-21T05:02:33.626Z,116.97
2018-02-21T05:04:59.947Z,130.73
2018-02-21T05:07:26.213Z,115.87
2018-02-21T05:09:52.511Z,121.63
2018-02-21T05:12:19.574Z,124.57
2018-02-21T05:14:45.845Z,120.87
2018-02-21T05:17:12.151Z,111.70
2018-02-21T05:19:38.414Z,122.87
2018-02-21T05:22:04.726Z,111.33
2018-02-21T05:24:31.035Z,123.33
2018-02-21T05:26:58.074Z,124.20
2018-02-21T05:29:24.714Z,126.93
2018-02-21T05:31:50.977Z,128.50
2018-02-21T05:34:17.274Z,131.23
2018-02-21T05:36:43.545Z,119.73
2018-02-21T05:39:09.849Z,119.53
2018-02-21T05:41:36.891Z,112.03
2018-02-21T05:44:03.146Z,114.73
2018-02-21T05:46:29.555Z,124.13
2018-02-21T05:48:55.826Z,120.53
2018-02-21T05:51:22.850Z,121.67
2018-02-21T05:53:49.898Z,114.50
2018-02-21T05:56:16.171Z,118.30
2018-02-21T05:58:42.495Z,117.57
2018-02-21T06:01:08.803Z,128.50
2018-02-21T06:03:35.076Z,126.87
2018-02-21T06:06:01.371Z,128.83
2018-02-21T06:08:27.637Z,130.40
2018-02-21T06:10:53.973Z,127.90
2018-02-21T06:13:20.227Z,142.77
2018-02-21T06:15:46.521Z,129.23
2018-02-21T06:18:13.557Z,114.00
2018-02-21T06:20:39.850Z,128.23
2018-02-21T06:23:06.130Z,130.37
2018-02-21T06:25:32.401Z,135.47
2018-02-21T06:27:59.476Z,131.90
2018-02-21T06:30:25.813Z,141.70
2018-02-21T06:32:52.091Z,123.67
2018-02-21T06:35:18.389Z,140.33
2018-02-21T06:37:44.691Z,123.77
2018-02-21T06:40:11.706Z,127.93
2018-02-21T06:42:38.019Z,129.83
2018-02-21T06:45:04.296Z,132.33
2018-02-21T06:47:30.589Z,123.73
2018-02-21T06:49:56.867Z,127.17
2018-02-21T06:52:23.522Z,126.53
2018-02-21T06:54:49.858Z,126.30
2018-02-21T06:57:16.938Z,128.60
2018-02-21T06:59:47.826Z,127.97
2018-02-21T07:02:26.547Z,131.63
2018-02-21T07:04:52.836Z,132.43
2018-02-21T07:07:19.138Z,128.13
2018-02-21T07:09:45.400Z,123.17
2018-02-21T07:12:11.706Z,130.90
2018-02-21T07:14:53.119Z,125.10
2018-02-21T07:17:21.841Z,126.40
2018-02-21T07:19:48.122Z,135.70
2018-02-21T07:22:14.382Z,112.97
2018-02-21T07:24:40.697Z,119.23
2018-02-21T07:27:06.967Z,127.77
2018-02-21T07:29:33.286Z,122.30
2018-02-21T07:31:59.561Z,116.93
2018-02-21T07:34:25.831Z,123.10
2018-02-21T07:36:52.134Z,117.13
2018-02-21T07:39:18.423Z,117.10
2018-02-21T07:41:44.718Z,128.93
2018-02-21T07:44:11.046Z,110.47
2018-02-21T07:46:37.269Z,116.10
2018-02-21T07:49:04.344Z,109.60
2018-02-21T07:51:31.336Z,113.60
2018-02-21T07:53:58.353Z,103.13
2018-02-21T07:56:24.647Z,116.73
2018-02-21T07:58:50.918Z,115.93
2018-02-21T08:01:17.175Z,111.43
2018-02-21T08:03:43.471Z,109.53
2018-02-21T08:06:09.751Z,93.23
2018-02-21T08:08:36.779Z,106.40
2018-02-21T08:11:03.828Z,98.23
2018-02-21T08:13:30.094Z,99.27
2018-02-21T08:15:56.411Z,102.20
2018-02-21T08:18:22.689Z,99.40
2018-02-21T08:20:49.021Z,100.17
2018-02-21T08:23:16.008Z,88.57
2018-02-21T08:25:43.015Z,90.77
2018-02-21T08:28:09.346Z,85.90
2018-02-21T08:30:35.640Z,87.10
2018-02-21T08:33:01.934Z,93.87
2018-02-21T08:35:28.238Z,90.20
2018-02-21T08:37:54.511Z,95.33
2018-02-21T08:40:21.562Z,88.63
2018-02-21T08:42:47.845Z,87.47
2018-02-21T08:45:14.287Z,91.80
2018-02-21T08:47:41.326Z,90.43
2018-02-21T08:50:07.601Z,90.20
2018-02-21T08:52:33.914Z,87.33
2018-02-21T08:55:00.209Z,88.27
2018-02-21T08:57:26.475Z,82.50
2018-02-21T08:59:53.510Z,86.53
2018-02-21T09:02:20.561Z,87.97
2018-02-21T09:04:46.882Z,82.70
2018-02-21T09:07:13.153Z,84.77
2018-02-21T09:09:39.422Z,81.53
2018-02-21T09:12:05.709Z,80.73
2018-02-21T09:14:32.720Z,79.87
2018-02-21T09:16:59.792Z,74.67
2018-02-21T09:19:26.069Z,72.00
2018-02-21T09:21:52.389Z,75.47
2018-02-21T09:24:18.678Z,80.37
2018-02-21T09:26:44.959Z,82.20
2018-02-21T09:29:11.333Z,65.97
2018-02-21T09:31:37.614Z,78.70
2018-02-21T09:34:03.882Z,80.30
2018-02-21T09:36:30.181Z,69.90
2018-02-21T09:38:57.185Z,79.00
2018-02-21T09:41:23.473Z,77.27
2018-02-21T09:43:49.741Z,73.27
2018-02-21T09:46:16.022Z,77.03
2018-02-21T09:48:42.307Z,74.90
2018-02-21T09:51:08.569Z,80.90
2018-02-21T09:53:34.886Z,71.17
2018-02-21T09:56:01.162Z,66.23
2018-02-21T09:58:27.425Z,66.90
2018-02-21T10:00:53.774Z,70.43
2018-02-21T10:03:20.044Z,72.00
2018-02-21T10:05:46.341Z,64.67
2018-02-21T10:08:12.601Z,60.00
2018-02-21T10:10:39.615Z,62.70
2018-02-21T10:13:05.906Z,62.23
2018-02-21T10:15:32.257Z,59.93
2018-02-21T10:17:58.547Z,66.37
2018-02-21T10:20:24.850Z,63.07
2018-02-21T10:22:51.127Z,61.07
2018-02-21T10:25:17.408Z,59.70
2018-02-21T10:27:43.705Z,58.47
2018-02-21T10:30:09.999Z,67.87
2018-02-21T10:32:36.323Z,67.60
2018-02-21T10:35:02.630Z,56.13
2018-02-21T10:37:28.918Z,61.13
2018-02-21T10:39:55.211Z,64.07
2018-02-21T10:42:22.250Z,54.57
2018-02-21T10:44:49.279Z,57.23
2018-02-21T10:47:16.317Z,56.77
2018-02-21T10:49:43.373Z,56.83
2018-02-21T10:52:09.654Z,54.67
2018-02-21T10:54:35.966Z,58.10
2018-02-21T10:57:02.250Z,50.40
2018-02-21T10:59:28.506Z,56.87
2018-02-21T11:01:55.578Z,48.80
2018-02-21T11:04:21.858Z,48.97
2018-02-21T11:06:48.895Z,46.40
2018-02-21T11:09:15.895Z,45.07
2018-02-21T11:11:42.164Z,43.37
2018-02-21T11:14:08.450Z,47.07
2018-02-21T11:16:35.467Z,48.07
2018-02-21T11:19:01.772Z,43.20
2018-02-21T11:21:28.042Z,47.75
2018-02-21T11:23:54.325Z,55.37
2018-02-21T11:26:21.408Z,51.27
2018-02-21T11:28:47.735Z,47.38
2018-02-21T11:31:14.054Z,48.15
2018-02-21T11:33:40.345Z,47.83
2018-02-21T11:36:06.607Z,46.57
2018-02-21T11:38:32.930Z,46.92
2018-02-21T11:40:59.946Z,43.92
2018-02-21T11:43:26.270Z,43.78
2018-02-21T11:45:52.617Z,40.03
2018-02-21T11:48:18.891Z,45.53
2018-02-21T11:50:45.213Z,43.28
2018-02-21T11:53:11.620Z,45.85
2018-02-21T11:55:37.926Z,44.28
2018-02-21T11:58:04.229Z,40.70
2018-02-21T12:00:30.508Z,43.75
2018-02-21T12:02:57.530Z,47.95
2018-02-21T12:05:24.589Z,54.30
2018-02-21T12:07:50.879Z,44.97
2018-02-21T12:10:17.948Z,40.28
2018-02-21T12:12:44.226Z,46.37
2018-02-21T12:15:11.241Z,48.00
2018-02-21T12:17:37.526Z,49.67
2018-02-21T12:20:03.815Z,43.25
2018-02-21T12:22:30.143Z,42.70
2018-02-21T12:24:56.446Z,49.20
2018-02-21T12:27:22.713Z,40.25
2018-02-21T12:29:49.015Z,49.47
2018-02-21T12:32:17.214Z,47.78
2018-02-21T12:34:44.303Z,42.05
2018-02-21T12:37:10.598Z,44.30
2018-02-21T12:39:36.870Z,43.30
2018-02-21T12:42:03.202Z,46.93
2018-02-21T12:44:30.217Z,41.73
2018-02-21T12:46:56.534Z,45.47
2018-02-21T12:49:22.806Z,44.73
2018-02-21T12:51:49.098Z,43.60
2018-02-21T12:54:15.381Z,44.80
2018-02-21T12:56:41.642Z,42.13
2018-02-21T12:59:07.930Z,39.40
2018-02-21T13:01:34.223Z,39.15
2018-02-21T13:04:00.474Z,42.00
2018-02-21T13:06:26.859Z,44.23
2018-02-21T13:08:53.125Z,38.07
2018-02-21T13:11:19.426Z,39.00
2018-02-21T13:13:45.698Z,40.90
2018-02-21T13:16:11.983Z,38.27
2018-02-21T13:18:38.299Z,42.73
2018-02-21T13:21:04.575Z,39.37
2018-02-21T13:23:30.880Z,37.10
2018-02-21T13:25:57.897Z,35.83
2018-02-21T13:28:25.105Z,34.87
2018-02-21T13:30:51.411Z,34.00
2018-02-21T13:33:17.721Z,35.80
2018-02-21T13:35:44.058Z,38.20
2018-02-21T13:38:10.351Z,34.97
2018-02-21T13:40:36.624Z,33.42
2018-02-21T13:43:03.945Z,30.58
2018-02-21T13:45:30.206Z,33.20
2018-02-21T13:47:56.485Z,34.17
2018-02-21T13:50:23.489Z,29.63
2018-02-21T13:52:49.758Z,34.38
2018-02-21T13:55:16.063Z,32.10
2018-02-21T13:57:43.266Z,35.08
2018-02-21T14:00:10.031Z,27.95
2018-02-21T14:02:36.379Z,32.95
2018-02-21T14:05:02.750Z,34.60
2018-02-21T14:07:29.789Z,27.62
2018-02-21T14:09:56.893Z,31.60
2018-02-21T14:12:23.190Z,32.88
2018-02-21T14:14:49.511Z,31.87
2018-02-21T14:17:15.787Z,33.17
2018-02-21T14:19:42.081Z,29.43
2018-02-21T14:22:09.099Z,31.27
2018-02-21T14:24:36.388Z,33.43
2018-02-21T14:27:02.719Z,32.70
2018-02-21T14:29:29.053Z,30.77
2018-02-21T14:31:55.345Z,41.00
2018-02-21T14:34:21.670Z,38.17
2018-02-21T14:36:47.977Z,33.23
2018-02-21T14:39:14.428Z,35.57
2018-02-21T14:41:40.730Z,35.97
2018-02-21T14:44:07.818Z,32.60
2018-02-21T14:46:34.943Z,33.73
2018-02-21T14:49:02.492Z,36.80
2018-02-21T14:51:28.806Z,35.03
2018-02-21T14:53:55.133Z,39.23
2018-02-21T14:56:21.455Z,37.23
2018-02-21T14:58:47.822Z,35.33
2018-02-21T15:01:14.266Z,37.93
2018-02-21T15:03:41.290Z,37.93
2018-02-21T15:06:08.320Z,36.87
2018-02-21T15:08:34.667Z,39.00
2018-02-21T15:11:01.266Z,42.17
2018-02-21T15:13:27.850Z,70.70
2018-02-21T15:15:54.138Z,38.27
2018-02-21T15:18:20.422Z,38.63
2018-02-21T15:20:47.457Z,32.70
2018-02-21T15:23:14.649Z,33.80
2018-02-21T15:25:41.568Z,34.23
2018-02-21T15:28:08.621Z,39.67
2018-02-21T15:30:35.154Z,38.93
2018-02-21T15:33:01.506Z,44.00
2018-02-21T15:35:27.778Z,33.37
2018-02-21T15:37:54.182Z,35.03
2018-02-21T15:40:20.517Z,38.00
2018-02-21T15:42:46.906Z,33.47
2018-02-21T15:45:13.260Z,34.50
2018-02-21T15:47:39.538Z,32.27
2018-02-21T15:50:05.846Z,36.43
2018-02-21T15:52:32.168Z,34.23
2018-02-21T15:54:58.469Z,36.87
2018-02-21T15:57:24.783Z,32.53
2018-02-21T15:59:51.813Z,33.73
2018-02-21T16:02:18.096Z,36.20
2018-02-21T16:04:45.135Z,33.50
2018-02-21T16:07:12.224Z,35.43
2018-02-21T16:09:38.506Z,35.33
2018-02-21T16:12:04.867Z,32.00
2018-02-21T16:14:31.152Z,36.33
2018-02-21T16:16:57.428Z,40.73
2018-02-21T16:19:24.472Z,57.57
2018-02-21T16:21:50.757Z,45.07
2018-02-21T16:24:17.198Z,45.43
2018-02-21T16:26:44.242Z,45.80
2018-02-21T16:29:10.519Z,40.53
2018-02-21T16:31:36.864Z,35.17
2018-02-21T16:34:03.142Z,36.87
2018-02-21T16:36:29.446Z,53.00
2018-02-21T16:38:55.847Z,42.83
2018-02-21T16:41:22.181Z,40.33
2018-02-21T16:43:48.486Z,31.33
2018-02-21T16:46:14.879Z,34.03
2018-02-21T16:48:41.246Z,38.20
2018-02-21T16:51:07.517Z,33.40
2018-02-21T16:53:33.850Z,35.33
2018-02-21T16:56:00.205Z,33.00
2018-02-21T16:58:26.530Z,28.93
2018-02-21T17:00:53.594Z,29.47
2018-02-21T17:03:19.866Z,29.47
2018-02-21T17:05:46.141Z,25.67
2018-02-21T17:08:12.501Z,26.57
2018-02-21T17:10:38.989Z,26.03
2018-02-21T17:13:05.299Z,31.33
2018-02-21T17:15:31.586Z,28.70
2018-02-21T17:17:57.950Z,27.30
2018-02-21T17:20:24.254Z,32.23
2018-02-21T17:22:50.634Z,26.93
2018-02-21T17:25:16.958Z,33.67
2018-02-21T17:27:43.227Z,33.50
2018-02-21T17:30:09.602Z,45.20
2018-02-21T17:32:35.913Z,31.07
2018-02-21T17:35:02.506Z,30.73
2018-02-21T17:37:28.930Z,30.17
2018-02-21T17:39:59.347Z,33.03
2018-02-21T17:42:25.905Z,28.70
2018-02-21T17:44:52.193Z,32.13
2018-02-21T17:47:18.871Z,36.13
2018-02-21T17:49:45.943Z,30.63
2018-02-21T17:52:12.228Z,31.73
2018-02-21T17:54:38.489Z,28.43
2018-02-21T17:57:04.839Z,35.93
2018-02-21T17:59:31.110Z,33.40
2018-02-21T18:01:57.474Z,34.67
2018-02-21T18:04:23.734Z,30.80
2018-02-21T18:06:50.021Z,31.13
2018-02-21T18:09:16.367Z,32.17
2018-02-21T18:11:43.527Z,33.63
2018-02-21T18:14:09.823Z,36.00
2018-02-21T18:16:36.136Z,38.10
2018-02-21T18:19:02.398Z,38.03
2018-02-21T18:21:34.660Z,32.93
2018-02-21T18:24:01.010Z,37.97
2018-02-21T18:26:28.058Z,28.83
2018-02-21T18:28:54.311Z,30.43
2018-02-21T18:31:20.597Z,33.17
2018-02-21T18:33:46.888Z,35.27
2018-02-21T18:36:13.969Z,35.57
2018-02-21T18:38:40.341Z,41.13
2018-02-21T18:41:07.409Z,32.10
2018-02-21T18:43:33.690Z,41.50
2018-02-21T18:45:59.978Z,42.93
2018-02-21T18:48:26.265Z,43.20
2018-02-21T18:50:52.556Z,37.87
2018-02-21T18:53:18.818Z,38.40
2018-02-21T18:55:45.099Z,40.47
2018-02-21T18:58:11.394Z,51.57
2018-02-21T19:00:37.733Z,38.03
2018-02-21T19:03:04.062Z,46.60
2018-02-21T19:05:30.322Z,39.70
2018-02-21T19:07:57.334Z,46.50
2018-02-21T19:10:23.609Z,45.30
2018-02-21T19:12:49.873Z,47.87
2018-02-21T19:15:16.159Z,45.03
2018-02-21T19:17:42.498Z,53.57
2018-02-21T19:20:08.877Z,52.20
2018-02-21T19:22:35.210Z,46.33
2018-02-21T19:25:01.505Z,54.33
2018-02-21T19:27:27.805Z,51.03
2018-02-21T19:29:54.091Z,51.40
2018-02-21T19:32:21.186Z,51.73
2018-02-21T19:34:47.484Z,52.40
2018-02-21T19:37:13.874Z,57.80
2018-02-21T19:39:40.245Z,55.00
2018-02-21T19:42:06.638Z,59.67
2018-02-21T19:44:32.903Z,56.43
2018-02-21T19:46:59.955Z,60.80
2018-02-21T19:49:26.226Z,59.60
2018-02-21T19:51:52.532Z,62.63
2018-02-21T19:54:18.842Z,64.33
2018-02-21T19:56:45.330Z,58.93
2018-02-21T19:59:11.643Z,61.83
2018-02-21T20:01:37.898Z,63.70
2018-02-21T20:04:04.219Z,64.63
2018-02-21T20:06:30.931Z,61.23
2018-02-21T20:08:57.218Z,64.33
2018-02-21T20:11:23.506Z,59.73
2018-02-21T20:13:50.604Z,67.50
2018-02-21T20:16:16.918Z,70.10
2018-02-21T20:18:43.200Z,61.10
2018-02-21T20:21:09.482Z,66.17
2018-02-21T20:23:35.747Z,66.23
2018-02-21T20:26:02.881Z,70.70
2018-02-21T20:28:29.163Z,60.27
2018-02-21T20:30:56.239Z,63.30
2018-02-21T20:33:22.574Z,68.13
2018-02-21T20:35:48.853Z,57.60
2018-02-21T20:38:16.845Z,59.00
2018-02-21T20:40:44.163Z,67.87
2018-02-21T20:43:10.562Z,58.93
2018-02-21T20:45:36.826Z,54.13
2018-02-21T20:48:03.089Z,67.77
2018-02-21T20:50:29.390Z,60.37
2018-02-21T20:52:55.738Z,58.47
2018-02-21T20:55:22.099Z,60.43
2018-02-21T20:57:49.162Z,65.33
2018-02-21T21:00:15.503Z,66.13
2018-02-21T21:02:41.845Z,69.10
2018-02-21T21:05:08.143Z,68.47
2018-02-21T21:07:34.442Z,61.53
2018-02-21T21:10:00.699Z,61.47
2018-02-21T21:12:27.010Z,65.50
2018-02-21T21:14:53.321Z,62.03
2018-02-21T21:17:19.841Z,59.90
2018-02-21T21:19:46.158Z,58.70
2018-02-21T21:22:12.451Z,67.90
2018-02-21T21:24:38.701Z,66.80
2018-02-21T21:27:05.003Z,56.37
2018-02-21T21:29:31.289Z,60.37
2018-02-21T21:31:57.586Z,63.77
2018-02-21T21:34:23.882Z,64.07
2018-02-21T21:36:50.903Z,63.10
2018-02-21T21:39:17.195Z,57.13
2018-02-21T21:41:43.513Z,64.93
2018-02-21T21:44:09.832Z,59.47
2018-02-21T21:46:36.243Z,63.70
2018-02-21T21:49:02.545Z,69.47
2018-02-21T21:51:28.846Z,58.53
2018-02-21T21:53:55.222Z,62.43
2018-02-21T21:56:22.344Z,59.83
2018-02-21T21:58:49.034Z,65.77
2018-02-21T22:01:15.308Z,56.00
2018-02-21T22:03:42.397Z,58.00
2018-02-21T22:06:08.669Z,62.20
2018-02-21T22:08:35.030Z,58.30
2018-02-21T22:11:02.491Z,55.93
2018-02-21T22:13:28.806Z,58.63
2018-02-21T22:15:55.094Z,59.07
2018-02-21T22:18:21.507Z,55.80
2018-02-21T22:20:49.089Z,50.53
2018-02-21T22:23:21.510Z,48.60
2018-02-21T22:25:47.942Z,55.87
2018-02-21T22:28:15.050Z,56.97
2018-02-21T22:30:42.639Z,58.43
2018-02-21T22:33:09.082Z,58.90
2018-02-21T22:35:35.318Z,54.83
2018-02-21T22:38:02.882Z,54.63
2018-02-21T22:40:29.198Z,53.73
2018-02-21T22:42:55.489Z,49.43
2018-02-21T22:45:21.875Z,51.20
2018-02-21T22:47:48.157Z,54.87
2018-02-21T22:50:14.466Z,51.13
2018-02-21T22:52:40.735Z,49.37
2018-02-21T22:55:07.774Z,57.27
2018-02-21T22:57:37.544Z,53.53
2018-02-21T23:00:03.853Z,56.97
2018-02-21T23:02:30.155Z,56.23
2018-02-21T23:04:56.432Z,58.90
2018-02-21T23:07:22.762Z,54.30
2018-02-21T23:09:49.045Z,57.23
2018-02-21T23:12:15.331Z,50.23
2018-02-21T23:14:41.648Z,60.83
2018-02-21T23:17:07.941Z,53.40
2018-02-21T23:19:34.217Z,53.00
2018-02-21T23:22:00.554Z,61.20
2018-02-21T23:24:26.906Z,62.03
2018-02-21T23:26:53.194Z,54.60
2018-02-21T23:29:19.466Z,51.30
2018-02-21T23:31:46.484Z,66.73
2018-02-21T23:34:12.773Z,53.80
2018-02-21T23:36:39.048Z,56.50
2018-02-21T23:39:05.373Z,56.27
2018-02-21T23:41:31.647Z,56.83
2018-02-21T23:43:57.934Z,59.63
2018-02-21T23:46:24.281Z,59.70
2018-02-21T23:48:51.289Z,56.83
2018-02-21T23:51:17.584Z,59.33
2018-02-21T23:53:43.866Z,53.93
2018-02-21T23:56:10.125Z,50.13
2018-02-21T23:58:36.410Z,56.87
